sensor_id;sensor_type;location;lat;lon;timestamp;P1;durP1;ratioP1;P2;durP2;ratioP2
69034;SDS011;56091;55.756;37.412;2022-11-18T00:01:33;10.73;;;3.47;;
69034;SDS011;56091;55.756;37.412;2022-11-18T00:06:34;11.50;;;3.63;;
69034;SDS011;56091;55.756;37.412;2022-11-18T00:11:38;11.80;;;4.77;;
69034;SDS011;56091;55.756;37.412;2022-11-18T00:17:01;9.60;;;3.47;;
69034;SDS011;56091;55.756;37.412;2022-11-18T00:22:04;5.80;;;2.70;;
69034;SDS011;56091;55.756;37.412;2022-11-18T00:27:06;9.02;;;3.15;;
69034;SDS011;56091;55.756;37.412;2022-11-18T00:32:07;8.13;;;2.70;;
69034;SDS011;56091;55.756;37.412;2022-11-18T00:37:08;7.83;;;2.23;;
69034;SDS011;56091;55.756;37.412;2022-11-18T00:42:08;9.75;;;3.03;;
69034;SDS011;56091;55.756;37.412;2022-11-18T00:47:28;10.10;;;3.50;;
69034;SDS011;56091;55.756;37.412;2022-11-18T00:52:28;8.82;;;2.92;;
69034;SDS011;56091;55.756;37.412;2022-11-18T00:57:32;14.83;;;3.30;;
69034;SDS011;56091;55.756;37.412;2022-11-18T01:02:36;8.50;;;3.05;;
69034;SDS011;56091;55.756;37.412;2022-11-18T01:07:37;9.47;;;3.40;;
69034;SDS011;56091;55.756;37.412;2022-11-18T01:12:37;6.28;;;2.55;;
69034;SDS011;56091;55.756;37.412;2022-11-18T01:17:57;8.07;;;3.23;;
69034;SDS011;56091;55.756;37.412;2022-11-18T01:23:07;12.47;;;3.60;;
69034;SDS011;56091;55.756;37.412;2022-11-18T01:28:08;9.23;;;3.42;;
69034;SDS011;56091;55.756;37.412;2022-11-18T01:33:10;8.87;;;3.37;;
69034;SDS011;56091;55.756;37.412;2022-11-18T01:38:12;11.20;;;3.45;;
69034;SDS011;56091;55.756;37.412;2022-11-18T01:43:14;10.80;;;3.00;;
69034;SDS011;56091;55.756;37.412;2022-11-18T01:48:27;8.68;;;2.80;;
69034;SDS011;56091;55.756;37.412;2022-11-18T01:53:34;8.97;;;2.93;;
69034;SDS011;56091;55.756;37.412;2022-11-18T01:58:44;6.95;;;2.72;;
69034;SDS011;56091;55.756;37.412;2022-11-18T02:03:49;8.93;;;3.47;;
69034;SDS011;56091;55.756;37.412;2022-11-18T02:08:54;6.38;;;2.47;;
69034;SDS011;56091;55.756;37.412;2022-11-18T02:13:56;10.10;;;3.07;;
69034;SDS011;56091;55.756;37.412;2022-11-18T02:18:59;7.47;;;2.50;;
69034;SDS011;56091;55.756;37.412;2022-11-18T02:29:26;7.78;;;2.83;;
69034;SDS011;56091;55.756;37.412;2022-11-18T02:39:53;8.20;;;3.13;;
69034;SDS011;56091;55.756;37.412;2022-11-18T02:45:04;9.17;;;3.33;;
69034;SDS011;56091;55.756;37.412;2022-11-18T02:50:10;9.52;;;3.40;;
69034;SDS011;56091;55.756;37.412;2022-11-18T02:55:13;10.10;;;3.60;;
69034;SDS011;56091;55.756;37.412;2022-11-18T03:00:16;10.18;;;3.80;;
69034;SDS011;56091;55.756;37.412;2022-11-18T03:10:20;11.77;;;3.22;;
69034;SDS011;56091;55.756;37.412;2022-11-18T03:21:04;7.95;;;3.08;;
69034;SDS011;56091;55.756;37.412;2022-11-18T03:26:15;12.17;;;3.90;;
69034;SDS011;56091;55.756;37.412;2022-11-18T03:31:23;5.05;;;2.08;;
69034;SDS011;56091;55.756;37.412;2022-11-18T03:36:46;9.67;;;3.37;;
69034;SDS011;56091;55.756;37.412;2022-11-18T03:41:51;7.82;;;2.90;;
69034;SDS011;56091;55.756;37.412;2022-11-18T03:46:58;8.83;;;2.97;;
69034;SDS011;56091;55.756;37.412;2022-11-18T03:52:06;7.28;;;2.53;;
69034;SDS011;56091;55.756;37.412;2022-11-18T03:57:15;10.63;;;2.83;;
69034;SDS011;56091;55.756;37.412;2022-11-18T04:02:22;11.20;;;2.90;;
69034;SDS011;56091;55.756;37.412;2022-11-18T04:12:37;8.80;;;3.42;;
69034;SDS011;56091;55.756;37.412;2022-11-18T04:18:00;8.93;;;3.07;;
69034;SDS011;56091;55.756;37.412;2022-11-18T04:23:00;7.93;;;3.10;;
69034;SDS011;56091;55.756;37.412;2022-11-18T04:28:01;9.07;;;3.70;;
69034;SDS011;56091;55.756;37.412;2022-11-18T04:33:02;9.85;;;3.90;;
69034;SDS011;56091;55.756;37.412;2022-11-18T04:38:04;9.80;;;2.80;;
69034;SDS011;56091;55.756;37.412;2022-11-18T04:43:05;8.67;;;3.23;;
69034;SDS011;56091;55.756;37.412;2022-11-18T04:48:05;8.48;;;3.10;;
69034;SDS011;56091;55.756;37.412;2022-11-18T04:53:06;6.77;;;2.43;;
69034;SDS011;56091;55.756;37.412;2022-11-18T04:58:07;7.80;;;2.93;;
69034;SDS011;56091;55.756;37.412;2022-11-18T05:03:07;8.57;;;2.97;;
69034;SDS011;56091;55.756;37.412;2022-11-18T05:08:08;9.10;;;3.10;;
69034;SDS011;56091;55.756;37.412;2022-11-18T05:13:11;8.23;;;3.10;;
69034;SDS011;56091;55.756;37.412;2022-11-18T05:18:12;7.93;;;2.85;;
69034;SDS011;56091;55.756;37.412;2022-11-18T05:23:13;9.33;;;3.50;;
69034;SDS011;56091;55.756;37.412;2022-11-18T05:28:13;10.60;;;2.90;;
69034;SDS011;56091;55.756;37.412;2022-11-18T05:33:14;8.90;;;3.00;;
69034;SDS011;56091;55.756;37.412;2022-11-18T05:38:15;12.27;;;3.07;;
69034;SDS011;56091;55.756;37.412;2022-11-18T05:43:16;8.60;;;3.08;;
69034;SDS011;56091;55.756;37.412;2022-11-18T05:48:18;10.98;;;3.45;;
69034;SDS011;56091;55.756;37.412;2022-11-18T05:53:23;9.27;;;3.58;;
69034;SDS011;56091;55.756;37.412;2022-11-18T05:58:24;8.25;;;3.10;;
69034;SDS011;56091;55.756;37.412;2022-11-18T06:03:26;9.50;;;3.47;;
69034;SDS011;56091;55.756;37.412;2022-11-18T06:08:34;9.15;;;2.90;;
69034;SDS011;56091;55.756;37.412;2022-11-18T06:13:41;9.52;;;2.92;;
69034;SDS011;56091;55.756;37.412;2022-11-18T06:18:53;7.47;;;2.72;;
69034;SDS011;56091;55.756;37.412;2022-11-18T06:23:55;7.95;;;3.00;;
69034;SDS011;56091;55.756;37.412;2022-11-18T06:28:56;8.45;;;3.10;;
69034;SDS011;56091;55.756;37.412;2022-11-18T06:33:57;8.17;;;2.90;;
69034;SDS011;56091;55.756;37.412;2022-11-18T06:39:01;9.38;;;3.10;;
69034;SDS011;56091;55.756;37.412;2022-11-18T06:44:06;8.95;;;3.22;;
69034;SDS011;56091;55.756;37.412;2022-11-18T06:49:12;11.18;;;3.75;;
69034;SDS011;56091;55.756;37.412;2022-11-18T06:54:13;6.07;;;2.30;;
69034;SDS011;56091;55.756;37.412;2022-11-18T06:59:13;9.65;;;3.40;;
69034;SDS011;56091;55.756;37.412;2022-11-18T07:04:14;9.03;;;3.57;;
69034;SDS011;56091;55.756;37.412;2022-11-18T07:09:15;10.20;;;3.22;;
69034;SDS011;56091;55.756;37.412;2022-11-18T07:14:16;9.30;;;3.07;;
69034;SDS011;56091;55.756;37.412;2022-11-18T07:19:17;11.23;;;3.65;;
69034;SDS011;56091;55.756;37.412;2022-11-18T07:24:18;5.17;;;2.27;;
69034;SDS011;56091;55.756;37.412;2022-11-18T07:29:19;9.93;;;3.37;;
69034;SDS011;56091;55.756;37.412;2022-11-18T07:34:22;8.10;;;3.20;;
69034;SDS011;56091;55.756;37.412;2022-11-18T07:39:22;7.57;;;2.70;;
69034;SDS011;56091;55.756;37.412;2022-11-18T07:44:23;8.65;;;3.70;;
69034;SDS011;56091;55.756;37.412;2022-11-18T07:49:27;10.47;;;3.13;;
69034;SDS011;56091;55.756;37.412;2022-11-18T07:54:27;8.23;;;3.33;;
69034;SDS011;56091;55.756;37.412;2022-11-18T07:59:29;9.13;;;3.63;;
69034;SDS011;56091;55.756;37.412;2022-11-18T08:04:29;8.20;;;3.37;;
69034;SDS011;56091;55.756;37.412;2022-11-18T08:09:36;10.73;;;3.92;;
69034;SDS011;56091;55.756;37.412;2022-11-18T08:14:36;8.20;;;3.53;;
69034;SDS011;56091;55.756;37.412;2022-11-18T08:19:37;9.97;;;3.80;;
69034;SDS011;56091;55.756;37.412;2022-11-18T08:24:38;7.88;;;3.50;;
69034;SDS011;56091;55.756;37.412;2022-11-18T08:29:39;8.73;;;3.60;;
69034;SDS011;56091;55.756;37.412;2022-11-18T08:34:39;8.18;;;3.50;;
69034;SDS011;56091;55.756;37.412;2022-11-18T08:39:43;10.35;;;4.15;;
69034;SDS011;56091;55.756;37.412;2022-11-18T08:44:43;10.37;;;3.63;;
69034;SDS011;56091;55.756;37.412;2022-11-18T08:49:47;11.93;;;4.10;;
69034;SDS011;56091;55.756;37.412;2022-11-18T08:54:48;10.93;;;3.83;;
69034;SDS011;56091;55.756;37.412;2022-11-18T08:59:49;7.85;;;3.47;;
69034;SDS011;56091;55.756;37.412;2022-11-18T09:04:50;10.43;;;4.10;;
69034;SDS011;56091;55.756;37.412;2022-11-18T09:09:51;11.80;;;4.22;;
69034;SDS011;56091;55.756;37.412;2022-11-18T09:14:52;10.30;;;3.75;;
69034;SDS011;56091;55.756;37.412;2022-11-18T09:19:52;10.37;;;4.10;;
69034;SDS011;56091;55.756;37.412;2022-11-18T09:24:53;10.80;;;4.47;;
69034;SDS011;56091;55.756;37.412;2022-11-18T09:29:54;9.87;;;3.67;;
69034;SDS011;56091;55.756;37.412;2022-11-18T09:34:56;9.55;;;3.33;;
69034;SDS011;56091;55.756;37.412;2022-11-18T09:39:56;13.18;;;3.60;;
69034;SDS011;56091;55.756;37.412;2022-11-18T09:50:02;9.17;;;3.47;;
69034;SDS011;56091;55.756;37.412;2022-11-18T09:55:13;9.52;;;3.33;;
69034;SDS011;56091;55.756;37.412;2022-11-18T10:00:17;10.27;;;3.35;;
69034;SDS011;56091;55.756;37.412;2022-11-18T10:05:24;9.30;;;3.70;;
69034;SDS011;56091;55.756;37.412;2022-11-18T10:16:05;11.32;;;4.38;;
69034;SDS011;56091;55.756;37.412;2022-11-18T10:26:33;9.55;;;4.10;;
69034;SDS011;56091;55.756;37.412;2022-11-18T10:31:37;9.93;;;3.90;;
69034;SDS011;56091;55.756;37.412;2022-11-18T10:37:00;12.27;;;4.38;;
69034;SDS011;56091;55.756;37.412;2022-11-18T10:42:43;10.73;;;4.38;;
69034;SDS011;56091;55.756;37.412;2022-11-18T10:53:32;10.85;;;4.25;;
69034;SDS011;56091;55.756;37.412;2022-11-18T10:58:34;10.88;;;4.20;;
69034;SDS011;56091;55.756;37.412;2022-11-18T11:03:40;9.55;;;3.90;;
69034;SDS011;56091;55.756;37.412;2022-11-18T11:08:47;11.43;;;4.15;;
69034;SDS011;56091;55.756;37.412;2022-11-18T11:13:53;8.00;;;3.20;;
69034;SDS011;56091;55.756;37.412;2022-11-18T11:19:01;11.07;;;3.92;;
69034;SDS011;56091;55.756;37.412;2022-11-18T11:24:08;9.13;;;4.00;;
69034;SDS011;56091;55.756;37.412;2022-11-18T12:01:46;9.45;;;4.00;;
69034;SDS011;56091;55.756;37.412;2022-11-18T12:07:04;9.80;;;4.32;;
69034;SDS011;56091;55.756;37.412;2022-11-18T12:17:43;8.43;;;4.10;;
69034;SDS011;56091;55.756;37.412;2022-11-18T12:33:32;2.70;;;1.20;;
69034;SDS011;56091;55.756;37.412;2022-11-18T12:38:43;11.07;;;4.05;;
69034;SDS011;56091;55.756;37.412;2022-11-18T12:44:05;9.20;;;3.85;;
69034;SDS011;56091;55.756;37.412;2022-11-18T12:59:39;9.50;;;3.97;;
69034;SDS011;56091;55.756;37.412;2022-11-18T13:04:40;8.32;;;3.28;;
69034;SDS011;56091;55.756;37.412;2022-11-18T13:09:41;10.20;;;3.70;;
69034;SDS011;56091;55.756;37.412;2022-11-18T13:14:42;10.32;;;3.97;;
69034;SDS011;56091;55.756;37.412;2022-11-18T13:20:04;11.63;;;4.20;;
69034;SDS011;56091;55.756;37.412;2022-11-18T13:25:05;11.85;;;4.60;;
69034;SDS011;56091;55.756;37.412;2022-11-18T13:30:23;9.70;;;4.33;;
69034;SDS011;56091;55.756;37.412;2022-11-18T13:35:25;9.93;;;3.95;;
69034;SDS011;56091;55.756;37.412;2022-11-18T13:40:30;11.50;;;4.20;;
69034;SDS011;56091;55.756;37.412;2022-11-18T13:46:01;10.63;;;4.22;;
69034;SDS011;56091;55.756;37.412;2022-11-18T13:51:06;11.90;;;4.20;;
69034;SDS011;56091;55.756;37.412;2022-11-18T13:56:18;10.27;;;4.03;;
69034;SDS011;56091;55.756;37.412;2022-11-18T14:01:27;11.63;;;3.87;;
69034;SDS011;56091;55.756;37.412;2022-11-18T14:06:37;13.10;;;4.30;;
69034;SDS011;56091;55.756;37.412;2022-11-18T14:11:41;12.33;;;4.23;;
69034;SDS011;56091;55.756;37.412;2022-11-18T14:16:43;8.23;;;3.45;;
69034;SDS011;56091;55.756;37.412;2022-11-18T14:21:43;9.47;;;4.17;;
69034;SDS011;56091;55.756;37.412;2022-11-18T14:26:45;11.20;;;4.25;;
69034;SDS011;56091;55.756;37.412;2022-11-18T14:32:02;12.35;;;4.43;;
69034;SDS011;56091;55.756;37.412;2022-11-18T14:37:18;13.83;;;4.57;;
69034;SDS011;56091;55.756;37.412;2022-11-18T14:42:19;11.13;;;4.30;;
69034;SDS011;56091;55.756;37.412;2022-11-18T14:47:26;9.03;;;3.60;;
69034;SDS011;56091;55.756;37.412;2022-11-18T14:52:28;11.27;;;4.13;;
69034;SDS011;56091;55.756;37.412;2022-11-18T14:57:29;8.15;;;3.83;;
69034;SDS011;56091;55.756;37.412;2022-11-18T15:02:30;9.83;;;3.80;;
69034;SDS011;56091;55.756;37.412;2022-11-18T15:07:31;10.27;;;4.13;;
69034;SDS011;56091;55.756;37.412;2022-11-18T15:12:32;10.23;;;3.93;;
69034;SDS011;56091;55.756;37.412;2022-11-18T15:17:33;11.40;;;4.30;;
69034;SDS011;56091;55.756;37.412;2022-11-18T15:22:33;11.82;;;4.13;;
69034;SDS011;56091;55.756;37.412;2022-11-18T15:27:34;12.07;;;4.00;;
69034;SDS011;56091;55.756;37.412;2022-11-18T15:32:36;9.48;;;3.92;;
69034;SDS011;56091;55.756;37.412;2022-11-18T15:37:37;9.43;;;3.83;;
69034;SDS011;56091;55.756;37.412;2022-11-18T15:42:38;13.77;;;4.05;;
69034;SDS011;56091;55.756;37.412;2022-11-18T15:47:39;9.43;;;3.70;;
69034;SDS011;56091;55.756;37.412;2022-11-18T15:52:40;9.57;;;3.47;;
69034;SDS011;56091;55.756;37.412;2022-11-18T15:57:41;9.23;;;3.53;;
69034;SDS011;56091;55.756;37.412;2022-11-18T16:02:42;8.20;;;3.40;;
69034;SDS011;56091;55.756;37.412;2022-11-18T16:07:43;11.32;;;3.65;;
69034;SDS011;56091;55.756;37.412;2022-11-18T16:12:44;17.13;;;4.37;;
69034;SDS011;56091;55.756;37.412;2022-11-18T16:17:48;10.23;;;3.35;;
69034;SDS011;56091;55.756;37.412;2022-11-18T16:22:49;8.03;;;3.20;;
69034;SDS011;56091;55.756;37.412;2022-11-18T16:27:51;10.48;;;3.60;;
69034;SDS011;56091;55.756;37.412;2022-11-18T16:32:52;8.03;;;3.20;;
69034;SDS011;56091;55.756;37.412;2022-11-18T16:37:53;9.73;;;3.75;;
69034;SDS011;56091;55.756;37.412;2022-11-18T16:42:55;10.63;;;3.37;;
69034;SDS011;56091;55.756;37.412;2022-11-18T16:47:55;10.60;;;4.03;;
69034;SDS011;56091;55.756;37.412;2022-11-18T16:52:57;11.43;;;4.00;;
69034;SDS011;56091;55.756;37.412;2022-11-18T16:57:59;10.38;;;4.03;;
69034;SDS011;56091;55.756;37.412;2022-11-18T17:03:00;10.70;;;4.00;;
69034;SDS011;56091;55.756;37.412;2022-11-18T17:08:01;10.77;;;4.45;;
69034;SDS011;56091;55.756;37.412;2022-11-18T17:13:02;13.60;;;4.82;;
69034;SDS011;56091;55.756;37.412;2022-11-18T17:18:03;9.57;;;3.77;;
69034;SDS011;56091;55.756;37.412;2022-11-18T17:23:04;14.35;;;5.18;;
69034;SDS011;56091;55.756;37.412;2022-11-18T17:28:05;12.93;;;4.70;;
69034;SDS011;56091;55.756;37.412;2022-11-18T17:33:05;12.23;;;4.60;;
69034;SDS011;56091;55.756;37.412;2022-11-18T17:38:07;10.95;;;4.63;;
69034;SDS011;56091;55.756;37.412;2022-11-18T17:43:07;13.00;;;4.00;;
69034;SDS011;56091;55.756;37.412;2022-11-18T17:48:08;11.45;;;4.65;;
69034;SDS011;56091;55.756;37.412;2022-11-18T17:53:09;10.27;;;4.33;;
69034;SDS011;56091;55.756;37.412;2022-11-18T17:58:10;12.20;;;4.57;;
69034;SDS011;56091;55.756;37.412;2022-11-18T18:03:12;12.15;;;4.80;;
69034;SDS011;56091;55.756;37.412;2022-11-18T18:08:13;10.37;;;4.50;;
69034;SDS011;56091;55.756;37.412;2022-11-18T18:13:13;14.10;;;4.97;;
69034;SDS011;56091;55.756;37.412;2022-11-18T18:18:33;5.80;;;2.47;;
69034;SDS011;56091;55.756;37.412;2022-11-18T18:23:34;9.33;;;3.00;;
69034;SDS011;56091;55.756;37.412;2022-11-18T18:28:36;10.18;;;3.95;;
69034;SDS011;56091;55.756;37.412;2022-11-18T18:33:37;14.32;;;4.90;;
69034;SDS011;56091;55.756;37.412;2022-11-18T18:38:42;10.25;;;3.75;;
69034;SDS011;56091;55.756;37.412;2022-11-18T18:43:43;13.18;;;4.82;;
69034;SDS011;56091;55.756;37.412;2022-11-18T18:48:46;13.13;;;4.93;;
69034;SDS011;56091;55.756;37.412;2022-11-18T18:53:47;15.25;;;5.10;;
69034;SDS011;56091;55.756;37.412;2022-11-18T18:58:48;11.20;;;4.68;;
69034;SDS011;56091;55.756;37.412;2022-11-18T19:03:52;12.23;;;4.03;;
69034;SDS011;56091;55.756;37.412;2022-11-18T19:08:54;13.70;;;4.68;;
69034;SDS011;56091;55.756;37.412;2022-11-18T19:14:00;12.33;;;5.00;;
69034;SDS011;56091;55.756;37.412;2022-11-18T19:19:09;12.80;;;5.32;;
69034;SDS011;56091;55.756;37.412;2022-11-18T19:24:13;13.33;;;4.13;;
69034;SDS011;56091;55.756;37.412;2022-11-18T19:29:14;13.40;;;4.45;;
69034;SDS011;56091;55.756;37.412;2022-11-18T19:34:15;14.33;;;4.90;;
69034;SDS011;56091;55.756;37.412;2022-11-18T19:39:16;16.83;;;5.30;;
69034;SDS011;56091;55.756;37.412;2022-11-18T19:44:17;13.37;;;5.10;;
69034;SDS011;56091;55.756;37.412;2022-11-18T19:49:18;15.60;;;5.45;;
69034;SDS011;56091;55.756;37.412;2022-11-18T19:54:22;12.30;;;3.57;;
69034;SDS011;56091;55.756;37.412;2022-11-18T19:59:23;17.20;;;5.70;;
69034;SDS011;56091;55.756;37.412;2022-11-18T20:04:23;14.55;;;5.95;;
69034;SDS011;56091;55.756;37.412;2022-11-18T20:09:24;14.13;;;5.30;;
69034;SDS011;56091;55.756;37.412;2022-11-18T20:14:25;14.90;;;5.85;;
69034;SDS011;56091;55.756;37.412;2022-11-18T20:19:26;13.00;;;4.67;;
69034;SDS011;56091;55.756;37.412;2022-11-18T20:24:26;14.40;;;5.83;;
69034;SDS011;56091;55.756;37.412;2022-11-18T20:29:27;17.02;;;5.70;;
69034;SDS011;56091;55.756;37.412;2022-11-18T20:34:28;14.77;;;5.57;;
69034;SDS011;56091;55.756;37.412;2022-11-18T20:39:29;12.82;;;4.88;;
69034;SDS011;56091;55.756;37.412;2022-11-18T20:44:29;15.87;;;6.00;;
69034;SDS011;56091;55.756;37.412;2022-11-18T20:49:30;15.00;;;5.40;;
69034;SDS011;56091;55.756;37.412;2022-11-18T20:54:31;19.38;;;6.13;;
69034;SDS011;56091;55.756;37.412;2022-11-18T20:59:34;18.80;;;6.20;;
69034;SDS011;56091;55.756;37.412;2022-11-18T21:04:34;16.30;;;5.68;;
69034;SDS011;56091;55.756;37.412;2022-11-18T21:09:35;15.37;;;6.30;;
69034;SDS011;56091;55.756;37.412;2022-11-18T21:14:36;14.30;;;5.47;;
69034;SDS011;56091;55.756;37.412;2022-11-18T21:19:37;15.52;;;5.90;;
69034;SDS011;56091;55.756;37.412;2022-11-18T21:24:38;14.30;;;5.33;;
69034;SDS011;56091;55.756;37.412;2022-11-18T21:29:38;19.50;;;5.88;;
69034;SDS011;56091;55.756;37.412;2022-11-18T21:34:40;15.60;;;6.07;;
69034;SDS011;56091;55.756;37.412;2022-11-18T21:39:45;16.30;;;6.00;;
69034;SDS011;56091;55.756;37.412;2022-11-18T21:44:46;16.70;;;5.67;;
69034;SDS011;56091;55.756;37.412;2022-11-18T21:49:47;14.40;;;5.55;;
69034;SDS011;56091;55.756;37.412;2022-11-18T21:54:48;14.27;;;5.37;;
69034;SDS011;56091;55.756;37.412;2022-11-18T21:59:49;14.83;;;5.30;;
69034;SDS011;56091;55.756;37.412;2022-11-18T22:04:49;15.88;;;5.72;;
69034;SDS011;56091;55.756;37.412;2022-11-18T22:09:53;17.93;;;5.30;;
69034;SDS011;56091;55.756;37.412;2022-11-18T22:14:54;17.60;;;5.80;;
69034;SDS011;56091;55.756;37.412;2022-11-18T22:19:55;16.30;;;5.07;;
69034;SDS011;56091;55.756;37.412;2022-11-18T22:24:56;15.40;;;5.30;;
69034;SDS011;56091;55.756;37.412;2022-11-18T22:29:56;9.60;;;3.53;;
69034;SDS011;56091;55.756;37.412;2022-11-18T22:35:00;12.60;;;5.10;;
69034;SDS011;56091;55.756;37.412;2022-11-18T22:40:01;13.35;;;4.90;;
69034;SDS011;56091;55.756;37.412;2022-11-18T22:45:07;15.50;;;4.50;;
69034;SDS011;56091;55.756;37.412;2022-11-18T22:50:08;12.73;;;4.78;;
69034;SDS011;56091;55.756;37.412;2022-11-18T22:55:10;13.40;;;5.17;;
69034;SDS011;56091;55.756;37.412;2022-11-18T23:00:11;10.43;;;3.25;;
69034;SDS011;56091;55.756;37.412;2022-11-18T23:05:12;11.10;;;4.40;;
69034;SDS011;56091;55.756;37.412;2022-11-18T23:10:13;14.20;;;5.00;;
69034;SDS011;56091;55.756;37.412;2022-11-18T23:15:14;12.43;;;5.23;;
69034;SDS011;56091;55.756;37.412;2022-11-18T23:20:15;12.18;;;4.97;;
69034;SDS011;56091;55.756;37.412;2022-11-18T23:25:16;13.70;;;5.10;;
69034;SDS011;56091;55.756;37.412;2022-11-18T23:30:17;13.25;;;5.55;;
69034;SDS011;56091;55.756;37.412;2022-11-18T23:35:17;15.53;;;5.37;;
69034;SDS011;56091;55.756;37.412;2022-11-18T23:40:18;15.10;;;5.67;;
69034;SDS011;56091;55.756;37.412;2022-11-18T23:45:19;13.30;;;5.40;;
69034;SDS011;56091;55.756;37.412;2022-11-18T23:50:20;15.27;;;5.22;;
69034;SDS011;56091;55.756;37.412;2022-11-18T23:55:20;13.17;;;5.40;;
